createdAt,value
2023-07-21T00:01:00.717Z,2.90
2023-07-21T00:03:27.883Z,2.60
2023-07-21T00:05:55.052Z,2.80
2023-07-21T00:08:22.380Z,2.67
2023-07-21T00:10:49.456Z,2.75
2023-07-21T00:13:16.594Z,2.72
2023-07-21T00:15:46.347Z,2.88
2023-07-21T00:18:13.642Z,3.08
2023-07-21T00:20:40.744Z,2.92
2023-07-21T00:23:07.793Z,2.72
2023-07-21T00:25:35.363Z,2.60
2023-07-21T00:28:02.451Z,2.35
2023-07-21T00:30:29.622Z,2.58
2023-07-21T00:32:58.411Z,2.67
2023-07-21T00:35:25.615Z,2.10
2023-07-21T00:37:52.681Z,2.42
2023-07-21T00:40:20.403Z,2.65
2023-07-21T00:42:47.647Z,2.50
2023-07-21T00:45:15.566Z,2.58
2023-07-21T00:47:44.181Z,2.47
2023-07-21T00:50:11.588Z,2.80
2023-07-21T00:52:39.606Z,2.55
2023-07-21T00:55:07.115Z,2.40
2023-07-21T00:57:34.817Z,2.70
2023-07-21T01:00:02.208Z,2.70
2023-07-21T01:02:31.238Z,2.80
2023-07-21T01:05:01.086Z,2.50
2023-07-21T01:07:28.991Z,2.70
2023-07-21T01:09:56.049Z,2.50
2023-07-21T01:12:23.109Z,2.63
2023-07-21T01:14:50.782Z,2.88
2023-07-21T01:17:17.869Z,2.45
2023-07-21T01:19:49.702Z,2.60
2023-07-21T01:22:19.006Z,2.90
2023-07-21T01:24:48.617Z,2.55
2023-07-21T01:27:16.832Z,2.83
2023-07-21T01:29:44.331Z,2.70
2023-07-21T01:32:13.125Z,2.60
2023-07-21T01:34:40.975Z,2.88
2023-07-21T01:37:10.982Z,3.05
2023-07-21T01:39:38.151Z,2.58
2023-07-21T01:42:05.861Z,2.90
2023-07-21T01:44:33.203Z,2.80
2023-07-21T01:47:00.356Z,2.85
2023-07-21T01:49:27.516Z,2.60
2023-07-21T01:51:58.334Z,2.83
2023-07-21T01:54:26.384Z,3.50
2023-07-21T01:56:56.097Z,2.97
2023-07-21T01:59:23.235Z,2.80
2023-07-21T02:01:50.589Z,3.28
2023-07-21T02:04:18.243Z,2.80
2023-07-21T02:06:45.364Z,3.33
2023-07-21T02:09:12.423Z,3.28
2023-07-21T02:11:39.486Z,2.67
2023-07-21T02:14:06.541Z,2.72
2023-07-21T02:16:33.693Z,2.88
2023-07-21T02:19:01.356Z,3.28
2023-07-21T02:21:28.541Z,3.15
2023-07-21T02:23:56.970Z,3.10
2023-07-21T02:26:24.393Z,3.03
2023-07-21T02:28:51.791Z,2.90
2023-07-21T02:31:19.460Z,2.90
2023-07-21T02:33:46.654Z,2.97
2023-07-21T02:36:14.709Z,2.95
2023-07-21T02:38:41.781Z,3.08
2023-07-21T02:41:10.817Z,3.20
2023-07-21T02:43:37.922Z,3.00
2023-07-21T02:46:05.419Z,3.22
2023-07-21T02:48:34.772Z,3.42
2023-07-21T02:51:01.990Z,3.53
2023-07-21T02:53:30.049Z,3.55
2023-07-21T02:55:57.114Z,4.03
2023-07-21T02:58:27.919Z,3.90
2023-07-21T03:00:57.754Z,4.22
2023-07-21T03:03:26.389Z,4.20
2023-07-21T03:05:53.912Z,4.70
2023-07-21T03:08:27.692Z,4.10
2023-07-21T03:10:56.652Z,4.50
2023-07-21T03:13:25.475Z,4.20
2023-07-21T03:15:53.517Z,4.45
2023-07-21T03:18:20.772Z,4.40
2023-07-21T03:20:50.256Z,4.88
2023-07-21T03:23:17.428Z,4.43
2023-07-21T03:25:44.710Z,4.88
2023-07-21T03:28:11.816Z,5.28
2023-07-21T03:30:39.034Z,4.88
2023-07-21T03:33:06.211Z,5.32
2023-07-21T03:35:34.033Z,5.38
2023-07-21T03:38:01.342Z,5.40
2023-07-21T03:40:28.476Z,5.63
2023-07-21T03:42:55.741Z,5.25
2023-07-21T03:45:22.958Z,5.28
2023-07-21T03:47:50.086Z,5.40
2023-07-21T03:50:17.329Z,4.65
2023-07-21T03:52:44.414Z,5.55
2023-07-21T03:55:11.583Z,5.38
2023-07-21T03:57:40.972Z,5.28
2023-07-21T04:00:08.895Z,5.05
2023-07-21T04:02:36.075Z,5.35
2023-07-21T04:05:03.166Z,4.78
2023-07-21T04:07:30.231Z,4.63
2023-07-21T04:09:59.794Z,4.15
2023-07-21T04:12:27.101Z,3.78
2023-07-21T04:14:54.462Z,3.85
2023-07-21T04:17:21.710Z,4.20
2023-07-21T04:19:48.840Z,3.92
2023-07-21T04:22:15.964Z,3.88
2023-07-21T04:24:43.153Z,4.00
2023-07-21T04:27:10.585Z,4.40
2023-07-21T04:29:37.788Z,4.70
2023-07-21T04:32:05.940Z,4.45
2023-07-21T04:34:33.078Z,4.50
2023-07-21T04:37:00.805Z,4.15
2023-07-21T04:39:27.951Z,4.32
2023-07-21T04:41:55.016Z,4.47
2023-07-21T04:44:22.202Z,4.60
2023-07-21T04:46:49.874Z,4.10
2023-07-21T04:49:17.317Z,4.65
2023-07-21T04:51:44.417Z,3.83
2023-07-21T04:54:12.984Z,4.10
2023-07-21T04:56:40.227Z,4.10
2023-07-21T04:59:07.679Z,4.63
2023-07-21T05:01:35.040Z,3.92
2023-07-21T05:04:02.205Z,4.50
2023-07-21T05:06:29.342Z,4.40
2023-07-21T05:08:56.406Z,3.83
2023-07-21T05:11:23.530Z,4.20
2023-07-21T05:13:52.677Z,3.88
2023-07-21T05:16:19.754Z,3.83
2023-07-21T05:18:46.967Z,4.03
2023-07-21T05:21:15.085Z,3.80
2023-07-21T05:23:42.560Z,3.85
2023-07-21T05:26:10.953Z,3.88
2023-07-21T05:28:38.091Z,3.55
2023-07-21T05:31:05.283Z,3.97
2023-07-21T05:33:32.368Z,3.83
2023-07-21T05:36:06.910Z,4.07
2023-07-21T05:38:34.017Z,4.22
2023-07-21T05:41:01.110Z,4.25
2023-07-21T05:43:28.229Z,4.00
2023-07-21T05:45:55.411Z,4.15
2023-07-21T05:48:22.481Z,4.75
2023-07-21T05:50:50.122Z,4.95
2023-07-21T05:53:18.123Z,5.07
2023-07-21T05:55:45.273Z,4.80
2023-07-21T05:58:12.416Z,4.60
2023-07-21T06:00:42.789Z,4.88
2023-07-21T06:03:10.117Z,4.80
2023-07-21T06:05:37.657Z,4.38
2023-07-21T06:08:05.434Z,4.40
2023-07-21T06:10:32.888Z,4.60
2023-07-21T06:13:00.121Z,4.20
2023-07-21T06:15:27.630Z,4.35
2023-07-21T06:17:54.884Z,4.20
2023-07-21T06:20:23.658Z,5.15
2023-07-21T06:22:50.795Z,4.60
2023-07-21T06:25:19.692Z,4.07
2023-07-21T06:27:48.735Z,4.32
2023-07-21T06:30:15.929Z,4.43
2023-07-21T06:32:43.076Z,4.55
2023-07-21T06:35:11.059Z,3.80
2023-07-21T06:37:41.426Z,3.90
2023-07-21T06:42:36.066Z,3.22
2023-07-21T06:45:03.237Z,3.03
2023-07-21T06:47:31.282Z,3.05
2023-07-21T06:49:59.346Z,3.28
2023-07-21T06:52:26.823Z,3.00
2023-07-21T06:54:53.960Z,3.10
2023-07-21T06:57:21.131Z,3.40
2023-07-21T06:59:48.206Z,3.25
2023-07-21T07:02:15.968Z,4.18
2023-07-21T07:04:43.209Z,4.18
2023-07-21T07:07:10.326Z,4.32
2023-07-21T07:09:37.920Z,4.20
2023-07-21T07:12:05.105Z,3.90
2023-07-21T07:14:32.270Z,3.85
2023-07-21T07:16:59.345Z,4.10
2023-07-21T07:19:28.300Z,3.60
2023-07-21T07:21:55.727Z,3.47
2023-07-21T07:24:22.861Z,3.10
2023-07-21T07:26:49.982Z,3.50
2023-07-21T07:29:17.086Z,3.50
2023-07-21T07:31:44.358Z,3.47
2023-07-21T07:34:11.572Z,3.15
2023-07-21T07:36:38.705Z,3.42
2023-07-21T07:39:05.740Z,3.25
2023-07-21T07:41:32.850Z,2.80
2023-07-21T07:43:59.970Z,2.90
2023-07-21T07:46:27.109Z,3.22
2023-07-21T07:48:56.300Z,3.20
2023-07-21T07:51:24.481Z,3.20
2023-07-21T07:53:53.617Z,3.13
2023-07-21T07:56:22.435Z,3.40
2023-07-21T07:58:49.604Z,3.10
2023-07-21T08:01:16.700Z,3.00
2023-07-21T08:03:44.921Z,2.95
2023-07-21T08:06:12.966Z,2.80
2023-07-21T08:08:40.148Z,2.70
2023-07-21T08:11:07.844Z,2.70
2023-07-21T08:13:35.193Z,3.20
2023-07-21T08:16:04.809Z,3.28
2023-07-21T08:18:31.977Z,3.03
2023-07-21T08:20:59.067Z,3.00
2023-07-21T08:23:30.001Z,2.95
2023-07-21T08:25:58.355Z,2.70
2023-07-21T08:28:25.719Z,2.78
2023-07-21T08:30:59.164Z,2.85
2023-07-21T08:33:27.374Z,3.10
2023-07-21T08:35:54.533Z,3.30
2023-07-21T08:38:21.642Z,3.22
2023-07-21T08:40:50.677Z,2.60
2023-07-21T08:43:18.498Z,2.58
2023-07-21T08:45:45.811Z,2.90
2023-07-21T08:48:17.581Z,2.70
2023-07-21T08:50:44.717Z,2.60
2023-07-21T08:53:14.933Z,2.45
2023-07-21T08:55:43.037Z,3.00
2023-07-21T08:58:10.103Z,2.50
2023-07-21T09:00:37.230Z,2.15
2023-07-21T09:03:04.542Z,2.10
2023-07-21T09:05:31.808Z,1.75
2023-07-21T09:07:58.975Z,1.90
2023-07-21T09:10:32.692Z,1.80
2023-07-21T09:13:00.366Z,1.83
2023-07-21T09:15:27.547Z,2.00
2023-07-21T09:17:54.818Z,1.88
2023-07-21T09:20:22.002Z,1.88
2023-07-21T09:22:49.716Z,1.80
2023-07-21T09:25:22.911Z,1.48
2023-07-21T09:27:54.302Z,1.60
2023-07-21T09:30:21.475Z,1.80
2023-07-21T09:32:48.727Z,1.70
2023-07-21T09:35:15.940Z,1.90
2023-07-21T09:37:43.090Z,1.90
2023-07-21T09:40:10.732Z,2.22
2023-07-21T09:42:38.498Z,2.30
2023-07-21T09:45:05.865Z,4.43
2023-07-21T09:47:33.059Z,2.00
2023-07-21T09:50:00.434Z,2.40
2023-07-21T09:52:27.940Z,2.17
2023-07-21T09:55:11.450Z,2.00
2023-07-21T09:57:43.164Z,2.25
2023-07-21T10:00:14.720Z,2.17
2023-07-21T10:02:48.997Z,1.80
2023-07-21T10:05:16.690Z,2.25
2023-07-21T10:07:44.486Z,1.70
2023-07-21T10:10:12.354Z,2.03
2023-07-21T10:12:53.650Z,1.90
2023-07-21T10:15:22.596Z,1.95
2023-07-21T10:17:59.787Z,2.40
2023-07-21T10:20:45.306Z,1.92
2023-07-21T10:23:13.296Z,1.70
2023-07-21T10:25:49.632Z,2.22
2023-07-21T10:28:16.869Z,2.40
2023-07-21T10:30:44.110Z,2.20
2023-07-21T10:33:14.823Z,2.10
2023-07-21T10:35:41.980Z,2.22
2023-07-21T10:38:15.092Z,2.38
2023-07-21T10:40:42.405Z,2.17
2023-07-21T10:43:09.492Z,2.17
2023-07-21T10:45:36.731Z,1.98
2023-07-21T10:48:12.970Z,2.63
2023-07-21T10:50:43.435Z,2.25
2023-07-21T10:53:13.671Z,3.17
2023-07-21T10:55:41.082Z,2.40
2023-07-21T10:58:08.181Z,2.80
2023-07-21T11:01:04.668Z,2.00
2023-07-21T11:03:31.809Z,2.03
2023-07-21T11:05:59.106Z,2.00
2023-07-21T11:08:29.718Z,2.10
2023-07-21T11:10:56.909Z,2.03
2023-07-21T11:13:24.023Z,2.20
2023-07-21T11:15:57.486Z,2.25
2023-07-21T11:18:24.629Z,2.13
2023-07-21T11:20:52.713Z,2.00
2023-07-21T11:23:20.214Z,2.45
2023-07-21T11:26:03.226Z,2.35
2023-07-21T11:28:30.496Z,2.20
2023-07-21T11:30:57.683Z,2.20
2023-07-21T11:33:24.908Z,1.90
2023-07-21T11:35:54.843Z,2.10
2023-07-21T11:38:22.050Z,2.15
2023-07-21T11:40:49.419Z,2.00
2023-07-21T11:43:16.527Z,2.38
2023-07-21T11:45:43.817Z,1.98
2023-07-21T11:48:14.206Z,2.30
2023-07-21T11:50:51.485Z,2.83
2023-07-21T11:53:19.236Z,2.35
2023-07-21T11:55:46.477Z,2.20
2023-07-21T11:58:13.627Z,2.20
2023-07-21T12:00:40.985Z,2.22
2023-07-21T12:03:09.458Z,1.98
2023-07-21T12:05:36.764Z,2.10
2023-07-21T12:08:04.974Z,1.77
2023-07-21T12:10:32.049Z,2.30
2023-07-21T12:12:59.585Z,2.10
2023-07-21T12:15:30.560Z,2.17
2023-07-21T12:17:57.744Z,1.95
2023-07-21T12:20:24.849Z,2.10
2023-07-21T12:22:52.389Z,2.00
2023-07-21T12:25:19.502Z,2.50
2023-07-21T12:27:46.627Z,2.50
2023-07-21T12:30:13.955Z,2.70
2023-07-21T12:32:41.377Z,2.10
2023-07-21T12:35:08.682Z,2.60
2023-07-21T12:37:40.062Z,1.98
2023-07-21T12:40:13.104Z,3.13
2023-07-21T12:42:40.800Z,3.22
2023-07-21T12:45:08.221Z,3.20
2023-07-21T12:47:38.714Z,3.78
2023-07-21T12:50:06.310Z,3.10
2023-07-21T12:52:33.431Z,3.38
2023-07-21T12:55:00.598Z,2.97
2023-07-21T12:57:27.725Z,3.28
2023-07-21T12:59:54.841Z,3.13
2023-07-21T13:02:22.042Z,2.90
2023-07-21T13:04:49.735Z,3.30
2023-07-21T13:07:16.988Z,3.33
2023-07-21T13:09:44.113Z,3.42
2023-07-21T13:12:11.305Z,3.25
2023-07-21T13:14:38.391Z,3.17
2023-07-21T13:17:05.549Z,3.55
2023-07-21T13:19:32.630Z,3.13
2023-07-21T13:22:02.310Z,3.20
2023-07-21T13:24:29.561Z,3.13
2023-07-21T13:26:56.893Z,3.03
2023-07-21T13:29:24.086Z,2.88
2023-07-21T13:31:51.292Z,3.08
2023-07-21T13:34:19.429Z,3.10
2023-07-21T13:36:47.486Z,3.20
2023-07-21T13:39:14.812Z,3.40
2023-07-21T13:41:41.940Z,3.35
2023-07-21T13:44:09.045Z,3.65
2023-07-21T13:46:36.168Z,3.60
2023-07-21T13:49:03.488Z,3.65
2023-07-21T13:51:30.600Z,3.70
2023-07-21T13:53:58.056Z,3.63
2023-07-21T13:56:25.566Z,3.30
2023-07-21T13:58:53.041Z,3.63
2023-07-21T14:01:20.196Z,3.80
2023-07-21T14:03:48.100Z,4.05
2023-07-21T14:06:18.203Z,4.10
2023-07-21T14:08:45.543Z,4.20
2023-07-21T14:11:12.731Z,3.83
2023-07-21T14:13:39.856Z,4.00
2023-07-21T14:16:07.179Z,4.22
2023-07-21T14:18:34.263Z,3.80
2023-07-21T14:21:01.328Z,4.38
2023-07-21T14:23:28.846Z,4.25
2023-07-21T14:25:56.023Z,3.85
2023-07-21T14:28:23.110Z,2.55
2023-07-21T14:30:50.255Z,2.65
2023-07-21T14:33:17.482Z,1.90
2023-07-21T14:35:44.604Z,2.20
2023-07-21T14:38:11.855Z,1.90
2023-07-21T14:40:39.200Z,1.75
2023-07-21T14:43:06.307Z,1.80
2023-07-21T14:45:34.710Z,2.10
2023-07-21T14:48:01.938Z,1.80
2023-07-21T14:50:29.304Z,1.40
2023-07-21T14:52:56.391Z,1.70
2023-07-21T14:55:23.493Z,1.65
2023-07-21T14:57:50.986Z,1.90
2023-07-21T15:00:27.043Z,1.70
2023-07-21T15:02:54.511Z,1.70
2023-07-21T15:05:21.805Z,1.83
2023-07-21T15:07:49.128Z,2.58
2023-07-21T15:10:16.347Z,1.92
2023-07-21T15:12:43.670Z,1.80
2023-07-21T15:15:11.107Z,1.30
2023-07-21T15:17:38.870Z,1.65
2023-07-21T15:20:12.710Z,1.38
2023-07-21T15:22:39.822Z,1.30
2023-07-21T15:25:07.074Z,1.40
2023-07-21T15:27:34.129Z,1.58
2023-07-21T15:30:01.209Z,1.33
2023-07-21T15:32:28.511Z,1.50
2023-07-21T15:34:55.747Z,1.45
2023-07-21T15:37:22.869Z,1.42
2023-07-21T15:39:50.048Z,1.58
2023-07-21T15:42:17.389Z,1.40
2023-07-21T15:44:44.479Z,1.73
2023-07-21T15:47:11.574Z,1.52
2023-07-21T15:49:51.157Z,1.70
2023-07-21T15:52:18.968Z,1.70
2023-07-21T15:54:46.643Z,1.40
2023-07-21T15:57:13.756Z,1.38
2023-07-21T15:59:41.670Z,1.45
2023-07-21T16:02:09.386Z,1.50
2023-07-21T16:04:36.683Z,1.45
2023-07-21T16:07:03.869Z,1.50
2023-07-21T16:09:31.024Z,1.52
2023-07-21T16:11:58.119Z,1.33
2023-07-21T16:14:25.212Z,1.55
2023-07-21T16:16:52.472Z,1.42
2023-07-21T16:19:19.620Z,1.80
2023-07-21T16:21:46.778Z,1.45
2023-07-21T16:24:13.902Z,1.50
2023-07-21T16:26:41.035Z,1.40
2023-07-21T16:29:08.180Z,1.35
2023-07-21T16:31:35.301Z,1.25
2023-07-21T16:34:02.539Z,1.05
2023-07-21T16:36:29.647Z,1.40
2023-07-21T16:38:56.782Z,1.17
2023-07-21T16:41:24.199Z,1.25
2023-07-21T16:43:51.486Z,0.90
2023-07-21T16:46:18.605Z,1.00
2023-07-21T16:48:45.746Z,1.10
2023-07-21T16:51:12.807Z,0.80
2023-07-21T16:53:39.853Z,1.05
2023-07-21T16:56:07.888Z,0.85
2023-07-21T16:58:38.948Z,0.90
2023-07-21T17:01:12.368Z,0.93
2023-07-21T17:03:40.052Z,1.48
2023-07-21T17:06:07.226Z,2.60
2023-07-21T17:08:34.335Z,1.40
2023-07-21T17:11:01.394Z,1.30
2023-07-21T17:13:28.562Z,1.00
2023-07-21T17:15:55.922Z,1.13
2023-07-21T17:18:23.299Z,1.00
2023-07-21T17:20:51.564Z,1.20
2023-07-21T17:23:18.768Z,1.20
2023-07-21T17:25:45.937Z,1.20
2023-07-21T17:28:13.130Z,1.10
2023-07-21T17:30:40.277Z,1.20
2023-07-21T17:33:07.837Z,1.27
2023-07-21T17:35:35.012Z,1.42
2023-07-21T17:38:04.031Z,1.48
2023-07-21T17:40:31.141Z,1.35
2023-07-21T17:42:58.223Z,1.30
2023-07-21T17:45:25.374Z,1.27
2023-07-21T17:47:52.553Z,1.40
2023-07-21T17:50:19.746Z,1.40
2023-07-21T17:52:46.911Z,1.60
2023-07-21T17:55:14.090Z,2.05
2023-07-21T17:57:43.398Z,1.73
2023-07-21T18:00:12.319Z,2.17
2023-07-21T18:02:41.332Z,1.20
2023-07-21T18:05:09.914Z,1.50
2023-07-21T18:07:37.017Z,1.20
2023-07-21T18:10:04.235Z,1.10
2023-07-21T18:12:31.300Z,1.20
2023-07-21T18:14:58.390Z,1.40
2023-07-21T18:17:25.545Z,1.30
2023-07-21T18:19:53.324Z,1.63
2023-07-21T18:22:20.485Z,1.55
2023-07-21T18:24:47.688Z,1.42
2023-07-21T18:27:14.960Z,1.20
2023-07-21T18:29:42.126Z,1.23
2023-07-21T18:32:10.231Z,1.30
2023-07-21T18:34:37.509Z,1.48
2023-07-21T18:37:04.728Z,2.05
2023-07-21T18:39:32.097Z,2.63
2023-07-21T18:41:59.259Z,3.03
2023-07-21T18:44:27.529Z,2.00
2023-07-21T18:46:54.834Z,2.42
2023-07-21T18:49:24.137Z,1.50
2023-07-21T18:51:51.744Z,1.38
2023-07-21T18:54:18.838Z,1.55
2023-07-21T18:56:45.989Z,1.60
2023-07-21T18:59:13.144Z,1.50
2023-07-21T19:01:41.813Z,1.23
2023-07-21T19:04:09.112Z,1.45
2023-07-21T19:06:37.038Z,1.60
2023-07-21T19:09:04.270Z,1.58
2023-07-21T19:11:31.834Z,1.60
2023-07-21T19:14:00.993Z,1.60
2023-07-21T19:16:30.666Z,1.73
2023-07-21T19:18:58.012Z,1.70
2023-07-21T19:21:25.470Z,1.50
2023-07-21T19:23:52.963Z,1.70
2023-07-21T19:26:23.655Z,1.60
2023-07-21T19:28:50.759Z,2.00
2023-07-21T19:31:18.204Z,1.73
2023-07-21T19:33:45.770Z,2.00
2023-07-21T19:36:14.049Z,2.08
2023-07-21T19:38:41.222Z,1.90
2023-07-21T19:41:09.380Z,1.70
2023-07-21T19:43:36.447Z,2.00
2023-07-21T19:46:03.611Z,2.30
2023-07-21T19:48:30.700Z,2.38
2023-07-21T19:50:57.825Z,1.92
2023-07-21T19:53:24.947Z,2.38
2023-07-21T19:55:52.035Z,1.83
2023-07-21T19:58:19.146Z,2.28
2023-07-21T20:00:46.348Z,2.40
2023-07-21T20:03:13.496Z,2.50
2023-07-21T20:05:40.776Z,2.08
2023-07-21T20:08:07.867Z,2.70
2023-07-21T20:10:37.088Z,2.70
2023-07-21T20:13:04.205Z,2.40
2023-07-21T20:15:32.193Z,2.13
2023-07-21T20:17:59.757Z,2.22
2023-07-21T20:20:26.935Z,2.03
2023-07-21T20:22:54.063Z,2.20
2023-07-21T20:25:21.328Z,2.15
2023-07-21T20:27:48.552Z,2.05
2023-07-21T20:30:15.731Z,2.50
2023-07-21T20:32:45.057Z,2.58
2023-07-21T20:35:12.337Z,2.72
2023-07-21T20:37:39.448Z,2.35
2023-07-21T20:40:07.427Z,2.80
2023-07-21T20:42:34.468Z,2.70
2023-07-21T20:45:01.568Z,2.60
2023-07-21T20:47:28.664Z,2.45
2023-07-21T20:49:56.126Z,2.20
2023-07-21T20:52:23.997Z,2.35
2023-07-21T20:54:51.071Z,2.80
2023-07-21T20:57:18.133Z,2.30
2023-07-21T20:59:46.817Z,2.38
2023-07-21T21:02:15.559Z,2.38
2023-07-21T21:04:42.747Z,2.20
2023-07-21T21:07:09.980Z,2.10
2023-07-21T21:09:37.627Z,2.53
2023-07-21T21:12:04.995Z,2.47
2023-07-21T21:14:33.421Z,2.30
2023-07-21T21:17:00.814Z,2.58
2023-07-21T21:19:28.192Z,2.80
2023-07-21T21:21:55.336Z,2.90
2023-07-21T21:24:22.525Z,3.15
2023-07-21T21:26:49.941Z,2.60
2023-07-21T21:29:17.235Z,2.55
2023-07-21T21:31:44.483Z,2.78
2023-07-21T21:34:13.302Z,2.95
2023-07-21T21:36:40.734Z,2.70
2023-07-21T21:39:07.803Z,2.75
2023-07-21T21:41:34.940Z,2.83
2023-07-21T21:44:02.051Z,2.80
2023-07-21T21:46:29.467Z,2.80
2023-07-21T21:48:56.909Z,2.92
2023-07-21T21:51:24.634Z,2.95
2023-07-21T21:53:51.788Z,2.95
2023-07-21T21:56:18.918Z,2.90
2023-07-21T21:58:46.004Z,2.85
2023-07-21T22:01:13.196Z,3.60
2023-07-21T22:03:42.716Z,3.55
2023-07-21T22:06:10.057Z,3.25
2023-07-21T22:08:37.210Z,3.75
2023-07-21T22:11:04.584Z,4.03
2023-07-21T22:13:33.901Z,3.70
2023-07-21T22:16:02.513Z,3.63
2023-07-21T22:18:29.649Z,3.55
2023-07-21T22:20:56.852Z,3.88
2023-07-21T22:23:24.018Z,4.15
2023-07-21T22:25:51.184Z,3.50
2023-07-21T22:28:22.310Z,3.60
2023-07-21T22:30:49.353Z,3.17
2023-07-21T22:33:16.463Z,3.80
2023-07-21T22:35:43.584Z,3.67
2023-07-21T22:38:10.659Z,4.28
2023-07-21T22:40:37.872Z,4.07
2023-07-21T22:43:05.104Z,4.05
2023-07-21T22:45:32.189Z,5.05
2023-07-21T22:47:59.412Z,4.68
2023-07-21T22:50:26.548Z,4.78
2023-07-21T22:52:53.634Z,4.88
2023-07-21T22:55:20.762Z,4.70
2023-07-21T22:57:47.861Z,5.13
2023-07-21T23:00:15.554Z,5.80
2023-07-21T23:02:42.932Z,5.68
2023-07-21T23:05:10.322Z,5.55
2023-07-21T23:07:37.505Z,5.40
2023-07-21T23:10:04.880Z,5.28
2023-07-21T23:12:32.056Z,5.28
2023-07-21T23:14:59.501Z,5.55
2023-07-21T23:17:26.933Z,6.00
2023-07-21T23:19:54.362Z,5.53
2023-07-21T23:22:21.456Z,5.05
2023-07-21T23:24:48.832Z,5.20
2023-07-21T23:27:16.199Z,5.18
2023-07-21T23:29:43.368Z,5.45
2023-07-21T23:32:10.520Z,4.70
2023-07-21T23:34:37.847Z,5.20
2023-07-21T23:37:05.200Z,4.18
2023-07-21T23:39:35.292Z,4.03
2023-07-21T23:42:02.424Z,4.13
2023-07-21T23:44:29.778Z,4.63
2023-07-21T23:46:56.886Z,4.07
2023-07-21T23:49:24.019Z,4.90
2023-07-21T23:51:51.056Z,4.35
2023-07-21T23:54:18.177Z,4.28
2023-07-21T23:56:45.478Z,4.35
2023-07-21T23:59:12.578Z,5.15
